sensor_id;sensor_type;location;lat;lon;timestamp;temperature;humidity
66088;DHT22;52872;52.994;6.940;2023-04-03T00:01:17;3.40;99.90
66088;DHT22;52872;52.994;6.940;2023-04-03T00:03:44;3.30;99.90
66088;DHT22;52872;52.994;6.940;2023-04-03T00:06:11;3.30;99.90
66088;DHT22;52872;52.994;6.940;2023-04-03T00:08:39;3.30;99.90
66088;DHT22;52872;52.994;6.940;2023-04-03T00:11:07;3.20;99.90
66088;DHT22;52872;52.994;6.940;2023-04-03T00:13:34;3.20;99.90
66088;DHT22;52872;52.994;6.940;2023-04-03T00:16:02;3.20;99.90
66088;DHT22;52872;52.994;6.940;2023-04-03T00:18:30;3.20;99.90
66088;DHT22;52872;52.994;6.940;2023-04-03T00:20:57;3.10;99.90
66088;DHT22;52872;52.994;6.940;2023-04-03T00:23:24;3.10;99.90
66088;DHT22;52872;52.994;6.940;2023-04-03T00:25:53;3.10;99.90
66088;DHT22;52872;52.994;6.940;2023-04-03T00:28:20;3.10;99.90
66088;DHT22;52872;52.994;6.940;2023-04-03T00:30:49;3.00;99.90
66088;DHT22;52872;52.994;6.940;2023-04-03T00:33:16;3.00;99.90
66088;DHT22;52872;52.994;6.940;2023-04-03T00:35:43;3.00;99.90
66088;DHT22;52872;52.994;6.940;2023-04-03T00:38:11;2.90;99.90
66088;DHT22;52872;52.994;6.940;2023-04-03T00:40:42;2.90;99.90
66088;DHT22;52872;52.994;6.940;2023-04-03T00:43:21;2.90;99.90
66088;DHT22;52872;52.994;6.940;2023-04-03T00:45:51;2.90;99.90
66088;DHT22;52872;52.994;6.940;2023-04-03T00:48:22;2.90;99.90
66088;DHT22;52872;52.994;6.940;2023-04-03T00:50:50;2.80;99.90
66088;DHT22;52872;52.994;6.940;2023-04-03T00:53:31;2.70;99.90
66088;DHT22;52872;52.994;6.940;2023-04-03T00:56:00;2.80;99.90
66088;DHT22;52872;52.994;6.940;2023-04-03T00:58:35;2.70;99.90
66088;DHT22;52872;52.994;6.940;2023-04-03T01:01:07;2.70;99.90
66088;DHT22;52872;52.994;6.940;2023-04-03T01:03:35;2.70;99.90
66088;DHT22;52872;52.994;6.940;2023-04-03T01:06:04;2.60;99.90
66088;DHT22;52872;52.994;6.940;2023-04-03T01:08:31;2.60;99.90
66088;DHT22;52872;52.994;6.940;2023-04-03T01:10:58;2.60;99.90
66088;DHT22;52872;52.994;6.940;2023-04-03T01:13:29;2.60;99.90
66088;DHT22;52872;52.994;6.940;2023-04-03T01:15:57;2.60;99.90
66088;DHT22;52872;52.994;6.940;2023-04-03T01:18:25;2.60;99.90
66088;DHT22;52872;52.994;6.940;2023-04-03T01:26:02;2.50;99.90
66088;DHT22;52872;52.994;6.940;2023-04-03T01:28:35;2.40;99.90
66088;DHT22;52872;52.994;6.940;2023-04-03T01:33:51;2.40;99.90
66088;DHT22;52872;52.994;6.940;2023-04-03T01:36:22;2.40;99.90
66088;DHT22;52872;52.994;6.940;2023-04-03T01:38:51;2.40;99.90
66088;DHT22;52872;52.994;6.940;2023-04-03T01:41:20;2.40;99.90
66088;DHT22;52872;52.994;6.940;2023-04-03T01:43:49;2.30;99.90
66088;DHT22;52872;52.994;6.940;2023-04-03T01:46:17;2.30;99.90
66088;DHT22;52872;52.994;6.940;2023-04-03T01:48:44;2.20;99.90
66088;DHT22;52872;52.994;6.940;2023-04-03T01:51:11;2.30;99.90
66088;DHT22;52872;52.994;6.940;2023-04-03T01:53:38;2.20;99.90
66088;DHT22;52872;52.994;6.940;2023-04-03T01:56:05;2.20;99.90
66088;DHT22;52872;52.994;6.940;2023-04-03T01:58:32;2.20;99.90
66088;DHT22;52872;52.994;6.940;2023-04-03T02:00:59;2.20;99.90
66088;DHT22;52872;52.994;6.940;2023-04-03T02:03:28;2.10;99.90
66088;DHT22;52872;52.994;6.940;2023-04-03T02:05:55;2.10;99.90
66088;DHT22;52872;52.994;6.940;2023-04-03T02:08:22;2.10;99.90
66088;DHT22;52872;52.994;6.940;2023-04-03T02:10:49;2.10;99.90
66088;DHT22;52872;52.994;6.940;2023-04-03T02:13:17;2.10;99.90
66088;DHT22;52872;52.994;6.940;2023-04-03T02:15:45;2.00;99.90
66088;DHT22;52872;52.994;6.940;2023-04-03T02:18:15;2.00;99.90
66088;DHT22;52872;52.994;6.940;2023-04-03T02:20:42;2.00;99.90
66088;DHT22;52872;52.994;6.940;2023-04-03T02:23:10;2.00;99.90
66088;DHT22;52872;52.994;6.940;2023-04-03T02:25:37;1.90;99.90
66088;DHT22;52872;52.994;6.940;2023-04-03T02:28:05;1.90;99.90
66088;DHT22;52872;52.994;6.940;2023-04-03T02:30:32;1.90;99.90
66088;DHT22;52872;52.994;6.940;2023-04-03T02:32:59;1.90;99.90
66088;DHT22;52872;52.994;6.940;2023-04-03T02:35:26;1.90;99.90
66088;DHT22;52872;52.994;6.940;2023-04-03T02:37:55;1.80;99.90
66088;DHT22;52872;52.994;6.940;2023-04-03T02:40:23;1.80;99.90
66088;DHT22;52872;52.994;6.940;2023-04-03T02:42:50;1.80;99.90
66088;DHT22;52872;52.994;6.940;2023-04-03T02:45:18;1.70;99.90
66088;DHT22;52872;52.994;6.940;2023-04-03T02:47:45;1.70;99.90
66088;DHT22;52872;52.994;6.940;2023-04-03T02:50:12;1.70;99.90
66088;DHT22;52872;52.994;6.940;2023-04-03T02:52:39;1.60;99.90
66088;DHT22;52872;52.994;6.940;2023-04-03T02:55:07;1.60;99.90
66088;DHT22;52872;52.994;6.940;2023-04-03T02:57:34;1.60;99.90
66088;DHT22;52872;52.994;6.940;2023-04-03T03:00:02;1.50;99.90
66088;DHT22;52872;52.994;6.940;2023-04-03T03:02:29;1.50;99.90
66088;DHT22;52872;52.994;6.940;2023-04-03T03:04:56;1.40;99.90
66088;DHT22;52872;52.994;6.940;2023-04-03T03:07:23;1.40;99.90
66088;DHT22;52872;52.994;6.940;2023-04-03T03:09:51;1.40;99.90
66088;DHT22;52872;52.994;6.940;2023-04-03T03:12:18;1.40;99.90
66088;DHT22;52872;52.994;6.940;2023-04-03T03:14:49;1.30;99.90
66088;DHT22;52872;52.994;6.940;2023-04-03T03:17:17;1.30;99.90
66088;DHT22;52872;52.994;6.940;2023-04-03T03:19:44;1.20;99.90
66088;DHT22;52872;52.994;6.940;2023-04-03T03:22:12;1.20;99.90
66088;DHT22;52872;52.994;6.940;2023-04-03T03:24:39;1.10;99.90
66088;DHT22;52872;52.994;6.940;2023-04-03T03:27:06;1.10;99.90
66088;DHT22;52872;52.994;6.940;2023-04-03T03:29:33;1.10;99.90
66088;DHT22;52872;52.994;6.940;2023-04-03T03:32:01;1.00;99.90
66088;DHT22;52872;52.994;6.940;2023-04-03T03:34:28;1.00;99.90
66088;DHT22;52872;52.994;6.940;2023-04-03T03:36:55;1.00;99.90
66088;DHT22;52872;52.994;6.940;2023-04-03T03:39:22;1.00;99.90
66088;DHT22;52872;52.994;6.940;2023-04-03T03:41:49;1.00;99.90
66088;DHT22;52872;52.994;6.940;2023-04-03T03:44:16;1.00;99.90
66088;DHT22;52872;52.994;6.940;2023-04-03T03:46:43;0.90;99.90
66088;DHT22;52872;52.994;6.940;2023-04-03T03:49:10;0.90;99.90
66088;DHT22;52872;52.994;6.940;2023-04-03T03:51:39;0.90;99.90
66088;DHT22;52872;52.994;6.940;2023-04-03T03:54:07;0.90;99.90
66088;DHT22;52872;52.994;6.940;2023-04-03T03:56:34;0.90;99.90
66088;DHT22;52872;52.994;6.940;2023-04-03T03:59:02;0.90;99.90
66088;DHT22;52872;52.994;6.940;2023-04-03T04:01:30;0.90;99.90
66088;DHT22;52872;52.994;6.940;2023-04-03T04:03:58;0.90;99.90
66088;DHT22;52872;52.994;6.940;2023-04-03T04:06:29;0.90;99.90
66088;DHT22;52872;52.994;6.940;2023-04-03T04:09:00;0.90;99.90
66088;DHT22;52872;52.994;6.940;2023-04-03T04:11:27;0.90;99.90
66088;DHT22;52872;52.994;6.940;2023-04-03T04:13:55;0.90;99.90
66088;DHT22;52872;52.994;6.940;2023-04-03T04:16:25;0.90;99.90
66088;DHT22;52872;52.994;6.940;2023-04-03T04:18:53;0.90;99.90
66088;DHT22;52872;52.994;6.940;2023-04-03T04:21:20;0.80;99.90
66088;DHT22;52872;52.994;6.940;2023-04-03T04:23:50;0.80;99.90
66088;DHT22;52872;52.994;6.940;2023-04-03T04:26:17;0.80;99.90
66088;DHT22;52872;52.994;6.940;2023-04-03T04:28:44;0.80;99.90
66088;DHT22;52872;52.994;6.940;2023-04-03T04:31:11;0.80;99.90
66088;DHT22;52872;52.994;6.940;2023-04-03T04:33:38;0.80;99.90
66088;DHT22;52872;52.994;6.940;2023-04-03T04:36:06;0.80;99.90
66088;DHT22;52872;52.994;6.940;2023-04-03T04:38:34;0.70;99.90
66088;DHT22;52872;52.994;6.940;2023-04-03T04:41:02;0.80;99.90
66088;DHT22;52872;52.994;6.940;2023-04-03T04:43:29;0.70;99.90
66088;DHT22;52872;52.994;6.940;2023-04-03T04:46:04;0.70;99.90
66088;DHT22;52872;52.994;6.940;2023-04-03T04:48:36;0.80;99.90
66088;DHT22;52872;52.994;6.940;2023-04-03T04:51:04;0.70;99.90
66088;DHT22;52872;52.994;6.940;2023-04-03T04:53:32;0.70;99.90
66088;DHT22;52872;52.994;6.940;2023-04-03T04:56:00;0.70;99.90
66088;DHT22;52872;52.994;6.940;2023-04-03T04:58:27;0.70;99.90
66088;DHT22;52872;52.994;6.940;2023-04-03T05:01:00;0.70;99.90
66088;DHT22;52872;52.994;6.940;2023-04-03T05:03:29;0.70;99.90
66088;DHT22;52872;52.994;6.940;2023-04-03T05:05:56;0.70;99.90
66088;DHT22;52872;52.994;6.940;2023-04-03T05:08:23;0.70;99.90
66088;DHT22;52872;52.994;6.940;2023-04-03T05:10:51;0.70;99.90
66088;DHT22;52872;52.994;6.940;2023-04-03T05:13:20;0.70;99.90
66088;DHT22;52872;52.994;6.940;2023-04-03T05:15:48;0.70;99.90
66088;DHT22;52872;52.994;6.940;2023-04-03T05:18:15;0.70;99.90
66088;DHT22;52872;52.994;6.940;2023-04-03T05:20:42;0.70;99.90
66088;DHT22;52872;52.994;6.940;2023-04-03T05:23:11;0.80;99.90
66088;DHT22;52872;52.994;6.940;2023-04-03T05:25:39;0.70;99.90
66088;DHT22;52872;52.994;6.940;2023-04-03T05:28:08;0.80;99.90
66088;DHT22;52872;52.994;6.940;2023-04-03T05:30:35;0.80;99.90
66088;DHT22;52872;52.994;6.940;2023-04-03T05:33:03;0.80;99.90
66088;DHT22;52872;52.994;6.940;2023-04-03T05:35:37;0.80;99.90
66088;DHT22;52872;52.994;6.940;2023-04-03T05:38:10;0.90;99.90
66088;DHT22;52872;52.994;6.940;2023-04-03T05:40:38;0.90;99.90
66088;DHT22;52872;52.994;6.940;2023-04-03T05:43:05;0.90;99.90
66088;DHT22;52872;52.994;6.940;2023-04-03T05:45:35;0.90;99.90
66088;DHT22;52872;52.994;6.940;2023-04-03T05:48:02;1.00;99.90
66088;DHT22;52872;52.994;6.940;2023-04-03T05:50:30;1.10;99.90
66088;DHT22;52872;52.994;6.940;2023-04-03T05:52:58;1.10;99.90
66088;DHT22;52872;52.994;6.940;2023-04-03T05:55:28;1.10;99.90
66088;DHT22;52872;52.994;6.940;2023-04-03T05:57:55;1.20;99.90
66088;DHT22;52872;52.994;6.940;2023-04-03T06:00:22;1.20;99.90
66088;DHT22;52872;52.994;6.940;2023-04-03T06:02:58;1.30;99.90
66088;DHT22;52872;52.994;6.940;2023-04-03T06:05:25;1.40;99.90
66088;DHT22;52872;52.994;6.940;2023-04-03T06:07:52;1.50;99.90
66088;DHT22;52872;52.994;6.940;2023-04-03T06:10:19;1.60;99.90
66088;DHT22;52872;52.994;6.940;2023-04-03T06:12:46;1.80;99.90
66088;DHT22;52872;52.994;6.940;2023-04-03T06:15:14;2.10;99.90
66088;DHT22;52872;52.994;6.940;2023-04-03T06:17:42;2.60;99.90
66088;DHT22;52872;52.994;6.940;2023-04-03T06:20:09;3.40;99.90
66088;DHT22;52872;52.994;6.940;2023-04-03T06:22:36;4.30;99.90
66088;DHT22;52872;52.994;6.940;2023-04-03T06:25:04;5.20;99.90
66088;DHT22;52872;52.994;6.940;2023-04-03T06:27:31;6.10;99.90
66088;DHT22;52872;52.994;6.940;2023-04-03T06:29:58;6.70;99.90
66088;DHT22;52872;52.994;6.940;2023-04-03T06:32:25;7.30;99.90
66088;DHT22;52872;52.994;6.940;2023-04-03T06:34:53;7.70;99.90
66088;DHT22;52872;52.994;6.940;2023-04-03T06:37:22;8.10;99.90
66088;DHT22;52872;52.994;6.940;2023-04-03T06:39:49;8.30;99.90
66088;DHT22;52872;52.994;6.940;2023-04-03T06:42:17;8.30;99.90
66088;DHT22;52872;52.994;6.940;2023-04-03T06:44:54;8.50;99.70
66088;DHT22;52872;52.994;6.940;2023-04-03T06:47:21;8.60;99.10
66088;DHT22;52872;52.994;6.940;2023-04-03T06:49:48;8.80;98.90
66088;DHT22;52872;52.994;6.940;2023-04-03T06:52:15;8.80;98.40
66088;DHT22;52872;52.994;6.940;2023-04-03T06:54:42;8.70;98.10
66088;DHT22;52872;52.994;6.940;2023-04-03T06:57:09;8.90;98.50
66088;DHT22;52872;52.994;6.940;2023-04-03T06:59:36;9.00;98.30
66088;DHT22;52872;52.994;6.940;2023-04-03T07:02:03;9.20;97.80
66088;DHT22;52872;52.994;6.940;2023-04-03T07:04:30;9.30;97.70
66088;DHT22;52872;52.994;6.940;2023-04-03T07:06:57;9.20;97.30
66088;DHT22;52872;52.994;6.940;2023-04-03T07:09:24;9.20;97.20
66088;DHT22;52872;52.994;6.940;2023-04-03T07:11:51;8.90;97.30
66088;DHT22;52872;52.994;6.940;2023-04-03T07:14:18;8.70;97.50
66088;DHT22;52872;52.994;6.940;2023-04-03T07:16:45;8.40;97.80
66088;DHT22;52872;52.994;6.940;2023-04-03T07:19:12;8.30;97.80
66088;DHT22;52872;52.994;6.940;2023-04-03T07:21:39;8.40;98.40
66088;DHT22;52872;52.994;6.940;2023-04-03T07:24:08;8.50;98.30
66088;DHT22;52872;52.994;6.940;2023-04-03T07:26:36;8.80;98.10
66088;DHT22;52872;52.994;6.940;2023-04-03T07:29:03;9.20;97.30
66088;DHT22;52872;52.994;6.940;2023-04-03T07:31:30;9.20;96.60
66088;DHT22;52872;52.994;6.940;2023-04-03T07:33:58;9.50;96.60
66088;DHT22;52872;52.994;6.940;2023-04-03T07:36:25;9.50;96.10
66088;DHT22;52872;52.994;6.940;2023-04-03T07:38:52;10.00;96.40
66088;DHT22;52872;52.994;6.940;2023-04-03T07:41:19;10.30;95.50
66088;DHT22;52872;52.994;6.940;2023-04-03T07:43:49;10.80;95.10
66088;DHT22;52872;52.994;6.940;2023-04-03T07:46:17;11.30;94.40
66088;DHT22;52872;52.994;6.940;2023-04-03T07:48:44;11.60;93.30
66088;DHT22;52872;52.994;6.940;2023-04-03T07:51:12;12.00;93.20
66088;DHT22;52872;52.994;6.940;2023-04-03T07:53:39;12.10;90.90
66088;DHT22;52872;52.994;6.940;2023-04-03T07:56:07;12.20;89.90
66088;DHT22;52872;52.994;6.940;2023-04-03T07:58:34;12.20;89.50
66088;DHT22;52872;52.994;6.940;2023-04-03T08:01:01;12.10;89.40
66088;DHT22;52872;52.994;6.940;2023-04-03T08:03:28;12.10;87.00
66088;DHT22;52872;52.994;6.940;2023-04-03T08:06:02;12.30;86.60
66088;DHT22;52872;52.994;6.940;2023-04-03T08:08:30;12.70;85.90
66088;DHT22;52872;52.994;6.940;2023-04-03T08:11:00;13.00;83.30
66088;DHT22;52872;52.994;6.940;2023-04-03T08:13:30;13.20;80.70
66088;DHT22;52872;52.994;6.940;2023-04-03T08:15:57;13.70;77.90
66088;DHT22;52872;52.994;6.940;2023-04-03T08:18:25;13.90;76.00
66088;DHT22;52872;52.994;6.940;2023-04-03T08:20:53;14.40;77.30
66088;DHT22;52872;52.994;6.940;2023-04-03T08:23:20;14.80;74.20
66088;DHT22;52872;52.994;6.940;2023-04-03T08:25:47;14.90;70.40
66088;DHT22;52872;52.994;6.940;2023-04-03T08:28:14;15.00;69.70
66088;DHT22;52872;52.994;6.940;2023-04-03T08:30:42;15.10;70.00
66088;DHT22;52872;52.994;6.940;2023-04-03T08:33:09;15.00;68.50
66088;DHT22;52872;52.994;6.940;2023-04-03T08:35:40;15.00;69.40
66088;DHT22;52872;52.994;6.940;2023-04-03T08:38:09;15.00;68.90
66088;DHT22;52872;52.994;6.940;2023-04-03T08:40:36;14.50;66.80
66088;DHT22;52872;52.994;6.940;2023-04-03T08:45:43;14.10;68.30
66088;DHT22;52872;52.994;6.940;2023-04-03T08:48:13;13.80;68.70
66088;DHT22;52872;52.994;6.940;2023-04-03T08:50:46;13.30;70.50
66088;DHT22;52872;52.994;6.940;2023-04-03T08:53:29;12.70;72.00
66088;DHT22;52872;52.994;6.940;2023-04-03T08:56:04;12.20;72.40
66088;DHT22;52872;52.994;6.940;2023-04-03T09:01:34;11.10;75.20
66088;DHT22;52872;52.994;6.940;2023-04-03T09:04:02;10.50;76.30
66088;DHT22;52872;52.994;6.940;2023-04-03T09:06:32;10.10;76.90
66088;DHT22;52872;52.994;6.940;2023-04-03T09:09:12;9.80;77.60
66088;DHT22;52872;52.994;6.940;2023-04-03T09:12:09;9.70;78.90
66088;DHT22;52872;52.994;6.940;2023-04-03T09:15:22;9.40;78.70
66088;DHT22;52872;52.994;6.940;2023-04-03T09:22:54;8.80;78.50
66088;DHT22;52872;52.994;6.940;2023-04-03T09:25:43;8.60;78.00
66088;DHT22;52872;52.994;6.940;2023-04-03T09:28:08;8.50;77.30
66088;DHT22;52872;52.994;6.940;2023-04-03T09:30:37;8.30;77.00
66088;DHT22;52872;52.994;6.940;2023-04-03T09:33:05;8.30;78.40
66088;DHT22;52872;52.994;6.940;2023-04-03T09:35:36;8.30;76.90
66088;DHT22;52872;52.994;6.940;2023-04-03T09:41:33;8.30;76.10
66088;DHT22;52872;52.994;6.940;2023-04-03T09:43:54;8.40;78.20
66088;DHT22;52872;52.994;6.940;2023-04-03T09:46:34;8.30;79.30
66088;DHT22;52872;52.994;6.940;2023-04-03T09:49:04;8.40;78.20
66088;DHT22;52872;52.994;6.940;2023-04-03T09:51:35;8.40;79.50
66088;DHT22;52872;52.994;6.940;2023-04-03T09:54:30;8.40;79.00
66088;DHT22;52872;52.994;6.940;2023-04-03T09:57:07;8.50;78.80
66088;DHT22;52872;52.994;6.940;2023-04-03T09:59:35;8.60;79.40
66088;DHT22;52872;52.994;6.940;2023-04-03T10:04:51;8.80;78.60
66088;DHT22;52872;52.994;6.940;2023-04-03T10:07:36;8.80;78.20
66088;DHT22;52872;52.994;6.940;2023-04-03T10:10:21;8.90;77.90
66088;DHT22;52872;52.994;6.940;2023-04-03T10:13:04;8.80;75.10
66088;DHT22;52872;52.994;6.940;2023-04-03T10:15:39;8.90;75.10
66088;DHT22;52872;52.994;6.940;2023-04-03T10:21:48;8.90;75.70
66088;DHT22;52872;52.994;6.940;2023-04-03T10:27:13;9.00;74.30
66088;DHT22;52872;52.994;6.940;2023-04-03T10:30:08;9.10;73.90
66088;DHT22;52872;52.994;6.940;2023-04-03T10:40:51;9.20;75.30
66088;DHT22;52872;52.994;6.940;2023-04-03T10:43:33;9.10;71.00
66088;DHT22;52872;52.994;6.940;2023-04-03T10:46:10;9.10;71.10
66088;DHT22;52872;52.994;6.940;2023-04-03T10:51:55;9.20;71.60
66088;DHT22;52872;52.994;6.940;2023-04-03T10:54:29;9.30;71.30
66088;DHT22;52872;52.994;6.940;2023-04-03T10:57:05;9.20;71.80
66088;DHT22;52872;52.994;6.940;2023-04-03T10:59:43;9.30;70.40
66088;DHT22;52872;52.994;6.940;2023-04-03T11:05:07;9.50;70.20
66088;DHT22;52872;52.994;6.940;2023-04-03T11:07:45;9.50;70.40
66088;DHT22;52872;52.994;6.940;2023-04-03T11:10:35;9.60;71.10
66088;DHT22;52872;52.994;6.940;2023-04-03T11:13:23;9.60;71.30
66088;DHT22;52872;52.994;6.940;2023-04-03T11:15:53;9.70;70.20
66088;DHT22;52872;52.994;6.940;2023-04-03T11:18:37;9.60;70.40
66088;DHT22;52872;52.994;6.940;2023-04-03T11:21:24;9.60;69.70
66088;DHT22;52872;52.994;6.940;2023-04-03T11:23:56;9.50;69.90
66088;DHT22;52872;52.994;6.940;2023-04-03T11:26:29;9.50;70.60
66088;DHT22;52872;52.994;6.940;2023-04-03T11:29:05;9.50;71.00
66088;DHT22;52872;52.994;6.940;2023-04-03T11:32:56;9.70;71.20
66088;DHT22;52872;52.994;6.940;2023-04-03T11:34:51;9.70;70.80
66088;DHT22;52872;52.994;6.940;2023-04-03T11:37:35;9.60;69.70
66088;DHT22;52872;52.994;6.940;2023-04-03T11:40:13;9.70;69.30
66088;DHT22;52872;52.994;6.940;2023-04-03T11:45:34;9.70;70.00
66088;DHT22;52872;52.994;6.940;2023-04-03T11:50:50;9.80;68.70
66088;DHT22;52872;52.994;6.940;2023-04-03T11:58:32;9.80;68.60
66088;DHT22;52872;52.994;6.940;2023-04-03T12:01:02;9.90;69.40
66088;DHT22;52872;52.994;6.940;2023-04-03T12:03:32;9.80;70.20
66088;DHT22;52872;52.994;6.940;2023-04-03T12:14:01;9.90;70.30
66088;DHT22;52872;52.994;6.940;2023-04-03T12:19:37;10.10;69.50
66088;DHT22;52872;52.994;6.940;2023-04-03T12:22:14;10.10;69.30
66088;DHT22;52872;52.994;6.940;2023-04-03T12:24:48;10.10;69.30
66088;DHT22;52872;52.994;6.940;2023-04-03T12:46:22;10.40;68.30
66088;DHT22;52872;52.994;6.940;2023-04-03T12:48:58;10.40;68.40
66088;DHT22;52872;52.994;6.940;2023-04-03T12:51:37;10.40;69.20
66088;DHT22;52872;52.994;6.940;2023-04-03T12:56:43;10.40;68.50
66088;DHT22;52872;52.994;6.940;2023-04-03T12:59:22;10.30;68.50
66088;DHT22;52872;52.994;6.940;2023-04-03T13:02:00;10.30;68.30
66088;DHT22;52872;52.994;6.940;2023-04-03T13:04:29;10.30;68.80
66088;DHT22;52872;52.994;6.940;2023-04-03T13:06:57;10.30;68.10
66088;DHT22;52872;52.994;6.940;2023-04-03T13:09:27;10.30;67.90
66088;DHT22;52872;52.994;6.940;2023-04-03T13:12:11;10.40;68.20
66088;DHT22;52872;52.994;6.940;2023-04-03T13:14:38;10.60;69.40
66088;DHT22;52872;52.994;6.940;2023-04-03T13:17:16;10.50;68.30
66088;DHT22;52872;52.994;6.940;2023-04-03T13:19:44;10.60;68.00
66088;DHT22;52872;52.994;6.940;2023-04-03T13:24:55;10.80;67.20
66088;DHT22;52872;52.994;6.940;2023-04-03T13:27:23;10.70;66.50
66088;DHT22;52872;52.994;6.940;2023-04-03T13:29:52;10.70;67.20
66088;DHT22;52872;52.994;6.940;2023-04-03T13:32:23;10.70;66.30
66088;DHT22;52872;52.994;6.940;2023-04-03T13:34:51;10.70;66.90
66088;DHT22;52872;52.994;6.940;2023-04-03T13:37:31;10.70;66.70
66088;DHT22;52872;52.994;6.940;2023-04-03T13:42:38;10.80;67.00
66088;DHT22;52872;52.994;6.940;2023-04-03T13:45:32;10.80;67.60
66088;DHT22;52872;52.994;6.940;2023-04-03T13:48:14;10.90;66.90
66088;DHT22;52872;52.994;6.940;2023-04-03T13:50:53;10.90;66.40
66088;DHT22;52872;52.994;6.940;2023-04-03T13:53:21;10.90;67.90
66088;DHT22;52872;52.994;6.940;2023-04-03T13:56:06;10.80;66.50
66088;DHT22;52872;52.994;6.940;2023-04-03T13:58:35;10.90;66.20
66088;DHT22;52872;52.994;6.940;2023-04-03T14:06:11;10.80;65.80
66088;DHT22;52872;52.994;6.940;2023-04-03T14:08:39;10.80;67.10
66088;DHT22;52872;52.994;6.940;2023-04-03T14:11:27;10.90;66.90
66088;DHT22;52872;52.994;6.940;2023-04-03T14:13:58;10.90;67.10
66088;DHT22;52872;52.994;6.940;2023-04-03T14:16:29;10.90;68.10
66088;DHT22;52872;52.994;6.940;2023-04-03T14:18:57;10.90;67.60
66088;DHT22;52872;52.994;6.940;2023-04-03T14:21:24;10.80;66.60
66088;DHT22;52872;52.994;6.940;2023-04-03T14:23:52;10.90;67.90
66088;DHT22;52872;52.994;6.940;2023-04-03T14:26:22;10.90;66.70
66088;DHT22;52872;52.994;6.940;2023-04-03T14:29:21;11.00;66.60
66088;DHT22;52872;52.994;6.940;2023-04-03T14:31:49;11.10;67.90
66088;DHT22;52872;52.994;6.940;2023-04-03T14:34:23;10.90;67.20
66088;DHT22;52872;52.994;6.940;2023-04-03T14:36:50;10.90;66.90
66088;DHT22;52872;52.994;6.940;2023-04-03T14:39:19;10.90;67.30
66088;DHT22;52872;52.994;6.940;2023-04-03T14:41:46;11.00;66.50
66088;DHT22;52872;52.994;6.940;2023-04-03T14:44:13;10.90;66.10
66088;DHT22;52872;52.994;6.940;2023-04-03T14:46:43;10.90;67.00
66088;DHT22;52872;52.994;6.940;2023-04-03T14:49:25;10.80;66.60
66088;DHT22;52872;52.994;6.940;2023-04-03T14:51:55;10.80;66.00
66088;DHT22;52872;52.994;6.940;2023-04-03T14:54:23;10.80;65.70
66088;DHT22;52872;52.994;6.940;2023-04-03T14:56:56;10.70;66.40
66088;DHT22;52872;52.994;6.940;2023-04-03T14:59:25;10.80;67.20
66088;DHT22;52872;52.994;6.940;2023-04-03T15:01:52;10.80;67.20
66088;DHT22;52872;52.994;6.940;2023-04-03T15:04:20;10.80;67.00
66088;DHT22;52872;52.994;6.940;2023-04-03T15:06:48;10.80;67.50
66088;DHT22;52872;52.994;6.940;2023-04-03T15:09:26;10.80;67.60
66088;DHT22;52872;52.994;6.940;2023-04-03T15:11:55;10.90;67.10
66088;DHT22;52872;52.994;6.940;2023-04-03T15:14:22;10.70;66.40
66088;DHT22;52872;52.994;6.940;2023-04-03T15:16:55;10.70;66.70
66088;DHT22;52872;52.994;6.940;2023-04-03T15:19:23;10.70;67.50
66088;DHT22;52872;52.994;6.940;2023-04-03T15:21:50;10.80;67.80
66088;DHT22;52872;52.994;6.940;2023-04-03T15:24:17;10.80;66.60
66088;DHT22;52872;52.994;6.940;2023-04-03T15:26:44;10.70;66.90
66088;DHT22;52872;52.994;6.940;2023-04-03T15:29:11;10.70;66.70
66088;DHT22;52872;52.994;6.940;2023-04-03T15:31:38;10.70;67.00
66088;DHT22;52872;52.994;6.940;2023-04-03T15:34:05;10.80;67.70
66088;DHT22;52872;52.994;6.940;2023-04-03T15:36:32;10.80;66.50
66088;DHT22;52872;52.994;6.940;2023-04-03T15:39:00;10.60;67.60
66088;DHT22;52872;52.994;6.940;2023-04-03T15:41:27;10.70;67.80
66088;DHT22;52872;52.994;6.940;2023-04-03T15:43:54;10.70;66.80
66088;DHT22;52872;52.994;6.940;2023-04-03T15:46:21;10.60;65.80
66088;DHT22;52872;52.994;6.940;2023-04-03T15:48:48;10.60;67.20
66088;DHT22;52872;52.994;6.940;2023-04-03T15:51:16;10.60;67.20
66088;DHT22;52872;52.994;6.940;2023-04-03T15:53:43;10.60;67.00
66088;DHT22;52872;52.994;6.940;2023-04-03T15:56:10;10.40;66.20
66088;DHT22;52872;52.994;6.940;2023-04-03T15:58:38;10.50;66.50
66088;DHT22;52872;52.994;6.940;2023-04-03T16:01:08;10.50;66.60
66088;DHT22;52872;52.994;6.940;2023-04-03T16:03:35;10.50;66.70
66088;DHT22;52872;52.994;6.940;2023-04-03T16:06:03;10.50;66.90
66088;DHT22;52872;52.994;6.940;2023-04-03T16:08:29;10.60;67.40
66088;DHT22;52872;52.994;6.940;2023-04-03T16:10:57;10.60;67.20
66088;DHT22;52872;52.994;6.940;2023-04-03T16:13:24;10.60;65.80
66088;DHT22;52872;52.994;6.940;2023-04-03T16:15:51;10.60;65.00
66088;DHT22;52872;52.994;6.940;2023-04-03T16:18:18;10.50;66.20
66088;DHT22;52872;52.994;6.940;2023-04-03T16:20:45;10.50;67.50
66088;DHT22;52872;52.994;6.940;2023-04-03T16:23:13;10.40;67.40
66088;DHT22;52872;52.994;6.940;2023-04-03T16:25:40;10.30;67.90
66088;DHT22;52872;52.994;6.940;2023-04-03T16:28:13;10.40;67.00
66088;DHT22;52872;52.994;6.940;2023-04-03T16:30:41;10.30;66.60
66088;DHT22;52872;52.994;6.940;2023-04-03T16:33:09;10.20;67.50
66088;DHT22;52872;52.994;6.940;2023-04-03T16:35:36;10.20;66.60
66088;DHT22;52872;52.994;6.940;2023-04-03T16:38:04;10.20;66.60
66088;DHT22;52872;52.994;6.940;2023-04-03T16:40:31;10.20;67.10
66088;DHT22;52872;52.994;6.940;2023-04-03T16:43:03;10.30;67.70
66088;DHT22;52872;52.994;6.940;2023-04-03T16:45:30;10.20;68.20
66088;DHT22;52872;52.994;6.940;2023-04-03T16:47:57;10.10;67.70
66088;DHT22;52872;52.994;6.940;2023-04-03T16:50:24;10.10;68.70
66088;DHT22;52872;52.994;6.940;2023-04-03T16:52:51;10.10;68.70
66088;DHT22;52872;52.994;6.940;2023-04-03T16:55:18;10.10;69.20
66088;DHT22;52872;52.994;6.940;2023-04-03T16:57:46;10.10;68.20
66088;DHT22;52872;52.994;6.940;2023-04-03T17:00:13;10.00;67.80
66088;DHT22;52872;52.994;6.940;2023-04-03T17:02:41;10.00;69.10
66088;DHT22;52872;52.994;6.940;2023-04-03T17:05:08;9.90;68.10
66088;DHT22;52872;52.994;6.940;2023-04-03T17:07:35;9.90;68.60
66088;DHT22;52872;52.994;6.940;2023-04-03T17:10:02;9.80;68.30
66088;DHT22;52872;52.994;6.940;2023-04-03T17:12:29;9.70;69.20
66088;DHT22;52872;52.994;6.940;2023-04-03T17:14:57;9.70;69.00
66088;DHT22;52872;52.994;6.940;2023-04-03T17:17:24;9.60;69.60
66088;DHT22;52872;52.994;6.940;2023-04-03T17:19:53;9.50;69.00
66088;DHT22;52872;52.994;6.940;2023-04-03T17:22:21;9.60;69.80
66088;DHT22;52872;52.994;6.940;2023-04-03T17:24:48;9.50;70.40
66088;DHT22;52872;52.994;6.940;2023-04-03T17:27:15;9.50;71.10
66088;DHT22;52872;52.994;6.940;2023-04-03T17:29:42;9.50;72.10
66088;DHT22;52872;52.994;6.940;2023-04-03T17:32:09;9.30;71.20
66088;DHT22;52872;52.994;6.940;2023-04-03T17:34:36;9.30;72.10
66088;DHT22;52872;52.994;6.940;2023-04-03T17:37:03;9.20;72.60